createdAt,value
2022-12-01T00:01:34.927Z,10.48
2022-12-01T00:04:36.506Z,12.02
2022-12-01T00:07:38.705Z,11.85
2022-12-01T00:10:40.414Z,12.20
2022-12-01T00:13:42.096Z,11.55
2022-12-01T00:16:44.761Z,12.35
2022-12-01T00:19:46.853Z,11.20
2022-12-01T00:22:49.436Z,12.65
2022-12-01T00:25:51.065Z,11.23
2022-12-01T00:28:55.264Z,11.95
2022-12-01T00:31:57.028Z,11.98
2022-12-01T00:34:58.719Z,11.60
2022-12-01T00:38:00.371Z,12.85
2022-12-01T00:41:02.696Z,12.05
2022-12-01T00:44:04.697Z,13.05
2022-12-01T00:47:06.506Z,11.98
2022-12-01T00:50:08.472Z,13.48
2022-12-01T00:53:10.296Z,12.52
2022-12-01T00:56:15.160Z,11.73
2022-12-01T00:59:16.980Z,11.73
2022-12-01T01:02:19.095Z,12.05
2022-12-01T01:05:20.794Z,11.38
2022-12-01T01:08:22.798Z,13.48
2022-12-01T01:11:24.882Z,12.73
2022-12-01T01:14:26.630Z,13.38
2022-12-01T01:17:28.280Z,13.57
2022-12-01T01:20:30.351Z,12.68
2022-12-01T01:23:32.427Z,13.00
2022-12-01T01:26:35.500Z,12.43
2022-12-01T01:29:37.243Z,12.65
2022-12-01T01:32:38.943Z,15.38
2022-12-01T01:35:40.846Z,13.77
2022-12-01T01:38:42.658Z,13.43
2022-12-01T01:41:44.395Z,14.00
2022-12-01T01:44:57.314Z,12.35
2022-12-01T01:48:00.646Z,12.63
2022-12-01T01:51:03.182Z,11.25
2022-12-01T01:54:09.995Z,13.55
2022-12-01T01:57:16.721Z,12.75
2022-12-01T02:03:22.626Z,11.52
2022-12-01T02:06:24.621Z,11.02
2022-12-01T02:09:26.258Z,14.50
2022-12-01T02:12:39.585Z,13.90
2022-12-01T02:16:05.585Z,13.88
2022-12-01T02:19:41.251Z,11.77
2022-12-01T02:23:16.608Z,10.82
2022-12-01T02:26:47.614Z,12.23
2022-12-01T02:30:09.966Z,11.27
2022-12-01T02:33:37.198Z,12.10
2022-12-01T02:36:48.275Z,11.90
2022-12-01T02:40:06.303Z,11.60
2022-12-01T02:43:12.795Z,10.88
2022-12-01T02:46:39.612Z,11.52
2022-12-01T02:49:49.503Z,11.63
2022-12-01T02:52:53.411Z,9.73
2022-12-01T02:55:58.473Z,11.00
2022-12-01T02:59:00.126Z,11.52
2022-12-01T03:02:15.578Z,9.07
2022-12-01T03:05:35.155Z,9.85
2022-12-01T03:09:15.911Z,9.10
2022-12-01T03:12:44.246Z,11.00
2022-12-01T03:16:00.626Z,9.18
2022-12-01T03:19:32.609Z,10.30
2022-12-01T03:22:44.552Z,10.02
2022-12-01T03:25:50.598Z,9.05
2022-12-01T03:29:00.994Z,10.13
2022-12-01T03:32:15.552Z,11.43
2022-12-01T03:35:23.586Z,10.80
2022-12-01T03:38:27.422Z,9.88
2022-12-01T03:41:36.593Z,7.63
2022-12-01T03:44:45.020Z,8.30
2022-12-01T03:47:46.921Z,8.60
2022-12-01T03:50:54.637Z,9.25
2022-12-01T03:54:00.474Z,8.48
2022-12-01T03:57:06.235Z,8.53
2022-12-01T04:00:11.415Z,8.30
2022-12-01T04:03:22.953Z,7.75
2022-12-01T04:06:24.601Z,11.45
2022-12-01T04:09:26.250Z,8.50
2022-12-01T04:12:30.864Z,9.38
2022-12-01T04:15:32.485Z,9.35
2022-12-01T04:18:34.148Z,8.85
2022-12-01T04:21:35.760Z,7.75
2022-12-01T04:24:37.407Z,7.88
2022-12-01T04:27:39.344Z,7.63
2022-12-01T04:30:40.959Z,7.70
2022-12-01T04:33:43.125Z,8.13
2022-12-01T04:36:44.888Z,7.20
2022-12-01T04:39:46.677Z,8.90
2022-12-01T04:42:48.435Z,7.63
2022-12-01T04:45:50.067Z,7.47
2022-12-01T04:48:51.780Z,9.07
2022-12-01T04:51:53.503Z,8.13
2022-12-01T04:54:55.155Z,12.07
2022-12-01T04:57:58.052Z,8.23
2022-12-01T05:01:05.099Z,8.25
2022-12-01T05:04:06.968Z,9.70
2022-12-01T05:07:09.095Z,8.18
2022-12-01T05:10:13.062Z,8.13
2022-12-01T05:13:14.659Z,9.07
2022-12-01T05:16:20.000Z,8.82
2022-12-01T05:19:40.536Z,10.15
2022-12-01T05:23:04.739Z,8.88
2022-12-01T05:26:06.694Z,9.30
2022-12-01T05:29:09.228Z,8.50
2022-12-01T05:32:10.899Z,9.05
2022-12-01T05:35:12.828Z,9.32
2022-12-01T05:38:14.712Z,8.57
2022-12-01T05:41:16.841Z,9.02
2022-12-01T05:44:18.481Z,9.35
2022-12-01T05:47:20.129Z,9.40
2022-12-01T05:50:22.661Z,8.18
2022-12-01T05:53:24.280Z,8.38
2022-12-01T05:56:26.073Z,8.45
2022-12-01T05:59:28.336Z,7.80
2022-12-01T06:02:30.022Z,8.57
2022-12-01T06:05:31.889Z,7.72
2022-12-01T06:08:33.529Z,8.95
2022-12-01T06:11:35.139Z,12.88
2022-12-01T06:14:36.834Z,37.95
2022-12-01T06:17:40.604Z,18.45
2022-12-01T06:20:42.302Z,20.23
2022-12-01T06:23:43.931Z,15.13
2022-12-01T06:26:45.631Z,16.00
2022-12-01T06:29:49.215Z,12.68
2022-12-01T06:32:51.003Z,12.52
2022-12-01T06:36:00.999Z,11.95
2022-12-01T06:39:07.533Z,11.55
2022-12-01T06:42:09.945Z,12.63
2022-12-01T06:45:12.033Z,10.68
2022-12-01T06:48:14.253Z,9.85
2022-12-01T06:51:15.839Z,10.38
2022-12-01T06:54:18.100Z,10.52
2022-12-01T06:57:19.976Z,9.93
2022-12-01T07:00:22.723Z,14.60
2022-12-01T07:03:24.534Z,30.85
2022-12-01T07:06:27.622Z,26.05
2022-12-01T07:09:29.348Z,18.10
2022-12-01T07:12:31.713Z,15.07
2022-12-01T07:15:33.328Z,14.95
2022-12-01T07:18:37.036Z,14.50
2022-12-01T07:21:41.407Z,14.02
2022-12-01T07:24:43.037Z,12.50
2022-12-01T07:27:44.719Z,13.32
2022-12-01T07:30:46.390Z,12.00
2022-12-01T07:33:48.025Z,12.80
2022-12-01T07:36:49.756Z,12.73
2022-12-01T07:39:52.552Z,13.88
2022-12-01T07:42:54.331Z,12.32
2022-12-01T07:45:56.025Z,11.95
2022-12-01T07:48:58.268Z,13.40
2022-12-01T07:51:59.978Z,12.02
2022-12-01T07:55:01.680Z,13.63
2022-12-01T07:58:03.348Z,13.18
2022-12-01T08:01:17.349Z,14.25
2022-12-01T08:04:19.168Z,12.32
2022-12-01T08:07:20.909Z,13.40
2022-12-01T08:10:22.640Z,13.88
2022-12-01T08:13:24.318Z,13.55
2022-12-01T08:16:26.147Z,13.43
2022-12-01T08:19:29.309Z,12.98
2022-12-01T08:22:30.963Z,15.13
2022-12-01T08:25:32.554Z,14.82
2022-12-01T08:28:37.525Z,13.95
2022-12-01T08:31:40.321Z,13.43
2022-12-01T08:34:41.978Z,14.80
2022-12-01T08:37:43.603Z,12.45
2022-12-01T08:40:45.268Z,13.75
2022-12-01T08:43:57.828Z,14.48
2022-12-01T08:47:00.309Z,13.73
2022-12-01T08:50:04.675Z,14.80
2022-12-01T08:53:06.288Z,13.80
2022-12-01T08:56:26.932Z,15.80
2022-12-01T08:59:28.603Z,15.00
2022-12-01T09:02:30.422Z,13.65
2022-12-01T09:05:32.090Z,14.55
2022-12-01T09:08:35.212Z,15.00
2022-12-01T09:11:37.662Z,15.38
2022-12-01T09:14:41.143Z,14.95
2022-12-01T09:17:42.739Z,14.90
2022-12-01T09:20:44.384Z,14.27
2022-12-01T09:23:46.809Z,15.25
2022-12-01T09:26:48.586Z,15.20
2022-12-01T09:29:50.532Z,14.35
2022-12-01T09:32:52.469Z,15.00
2022-12-01T09:35:58.462Z,14.45
2022-12-01T09:39:00.840Z,14.65
2022-12-01T09:42:12.963Z,13.82
2022-12-01T09:45:26.757Z,15.40
2022-12-01T09:48:34.574Z,13.15
2022-12-01T09:51:37.018Z,12.73
2022-12-01T09:54:38.833Z,22.75
2022-12-01T09:57:41.804Z,20.90
2022-12-01T10:00:44.485Z,21.02
2022-12-01T10:03:57.868Z,17.30
2022-12-01T10:07:25.108Z,20.48
2022-12-01T10:10:46.215Z,18.15
2022-12-01T10:13:47.904Z,15.63
2022-12-01T10:17:10.783Z,14.80
2022-12-01T10:20:24.435Z,17.42
2022-12-01T10:23:55.401Z,16.08
2022-12-01T10:27:06.168Z,13.70
2022-12-01T10:30:20.047Z,15.13
2022-12-01T10:33:36.347Z,16.00
2022-12-01T10:36:37.915Z,12.77
2022-12-01T10:39:46.464Z,14.18
2022-12-01T10:42:50.471Z,14.25
2022-12-01T10:45:53.622Z,14.55
2022-12-01T10:48:58.335Z,14.05
2022-12-01T10:52:00.079Z,14.50
2022-12-01T10:55:03.612Z,14.10
2022-12-01T10:58:15.483Z,14.40
2022-12-01T11:01:32.073Z,14.18
2022-12-01T11:04:46.515Z,12.93
2022-12-01T11:07:49.688Z,13.45
2022-12-01T11:10:52.163Z,15.43
2022-12-01T11:13:54.944Z,15.10
2022-12-01T11:16:56.623Z,15.80
2022-12-01T11:19:58.867Z,15.73
2022-12-01T11:23:09.762Z,16.75
2022-12-01T11:26:24.984Z,15.30
2022-12-01T11:29:33.125Z,14.75
2022-12-01T11:32:39.266Z,13.43
2022-12-01T11:35:47.708Z,15.30
2022-12-01T11:38:50.486Z,15.57
2022-12-01T11:41:57.913Z,15.10
2022-12-01T11:45:18.827Z,16.95
2022-12-01T11:48:25.854Z,14.15
2022-12-01T11:51:32.012Z,11.65
2022-12-01T11:54:34.010Z,15.63
2022-12-01T11:57:35.712Z,17.13
2022-12-01T12:00:47.997Z,14.55
2022-12-01T12:04:23.785Z,15.45
2022-12-01T12:07:45.793Z,17.48
2022-12-01T12:11:19.043Z,15.52
2022-12-01T12:14:41.046Z,14.55
2022-12-01T12:17:48.964Z,14.55
2022-12-01T12:21:13.582Z,14.98
2022-12-01T12:24:47.541Z,16.92
2022-12-01T12:28:07.416Z,15.48
2022-12-01T12:31:21.074Z,14.95
2022-12-01T12:34:48.510Z,16.65
2022-12-01T12:38:22.335Z,16.77
2022-12-01T12:41:33.001Z,14.63
2022-12-01T12:44:43.897Z,15.75
2022-12-01T12:48:14.916Z,22.10
2022-12-01T12:51:36.920Z,16.50
2022-12-01T12:54:38.605Z,14.73
2022-12-01T12:58:11.237Z,13.40
2022-12-01T13:01:21.234Z,15.18
2022-12-01T13:04:32.146Z,15.80
2022-12-01T13:07:50.947Z,14.93
2022-12-01T13:10:59.625Z,14.35
2022-12-01T13:14:07.313Z,15.57
2022-12-01T13:17:38.472Z,14.20
2022-12-01T13:20:41.235Z,16.85
2022-12-01T13:23:44.753Z,18.98
2022-12-01T13:26:59.476Z,15.20
2022-12-01T13:30:01.950Z,15.80
2022-12-01T13:33:05.527Z,15.18
2022-12-01T13:36:45.001Z,15.40
2022-12-01T13:39:37.364Z,14.13
2022-12-01T13:42:39.930Z,14.45
2022-12-01T13:45:42.178Z,14.95
2022-12-01T13:48:52.004Z,13.05
2022-12-01T13:52:19.034Z,14.25
2022-12-01T13:55:26.821Z,15.27
2022-12-01T13:58:34.442Z,13.65
2022-12-01T14:01:43.651Z,14.63
2022-12-01T14:04:45.442Z,14.50
2022-12-01T14:07:47.183Z,15.50
2022-12-01T14:10:59.667Z,15.68
2022-12-01T14:14:13.305Z,13.77
2022-12-01T14:17:45.132Z,13.05
2022-12-01T14:20:48.706Z,12.55
2022-12-01T14:24:02.600Z,13.73
2022-12-01T14:27:05.629Z,13.35
2022-12-01T14:30:45.735Z,13.93
2022-12-01T14:33:59.146Z,13.15
2022-12-01T14:37:12.036Z,15.85
2022-12-01T14:40:22.369Z,15.02
2022-12-01T14:43:45.672Z,15.05
2022-12-01T14:47:12.386Z,15.23
2022-12-01T14:50:24.890Z,15.87
2022-12-01T14:53:33.764Z,15.60
2022-12-01T14:56:37.219Z,17.83
2022-12-01T14:59:38.956Z,14.57
2022-12-01T15:02:42.656Z,15.40
2022-12-01T15:05:44.341Z,14.52
2022-12-01T15:08:58.757Z,16.13
2022-12-01T15:12:27.698Z,17.15
2022-12-01T15:15:29.343Z,14.52
2022-12-01T15:18:36.789Z,14.82
2022-12-01T15:21:38.439Z,13.63
2022-12-01T15:24:40.430Z,16.10
2022-12-01T15:27:45.369Z,14.63
2022-12-01T15:30:50.617Z,15.70
2022-12-01T15:33:53.268Z,17.60
2022-12-01T15:36:55.096Z,17.27
2022-12-01T15:43:26.849Z,15.15
2022-12-01T15:46:30.910Z,14.27
2022-12-01T15:49:33.520Z,14.63
2022-12-01T15:52:44.868Z,16.75
2022-12-01T15:55:50.889Z,15.40
2022-12-01T15:59:03.298Z,13.93
2022-12-01T16:02:21.477Z,17.55
2022-12-01T16:05:30.191Z,16.25
2022-12-01T16:08:32.019Z,18.00
2022-12-01T16:11:34.063Z,15.77
2022-12-01T16:14:36.717Z,17.83
2022-12-01T16:17:49.754Z,14.35
2022-12-01T16:20:51.371Z,14.27
2022-12-01T16:24:05.180Z,16.63
2022-12-01T16:27:19.409Z,18.65
2022-12-01T16:30:30.114Z,16.00
2022-12-01T16:33:37.560Z,16.63
2022-12-01T16:36:39.168Z,13.60
2022-12-01T16:39:40.873Z,16.23
2022-12-01T16:42:42.677Z,16.27
2022-12-01T16:45:46.297Z,13.80
2022-12-01T16:48:47.951Z,14.80
2022-12-01T16:51:56.174Z,17.02
2022-12-01T16:54:58.668Z,17.00
2022-12-01T16:58:00.281Z,16.95
2022-12-01T17:01:01.947Z,15.77
2022-12-01T17:04:07.621Z,16.02
2022-12-01T17:07:09.595Z,14.95
2022-12-01T17:10:11.712Z,22.38
2022-12-01T17:13:13.678Z,17.70
2022-12-01T17:16:18.365Z,22.02
2022-12-01T17:19:20.513Z,17.30
2022-12-01T17:22:22.400Z,17.38
2022-12-01T17:25:25.279Z,19.10
2022-12-01T17:28:27.248Z,25.33
2022-12-01T17:31:28.900Z,34.90
2022-12-01T17:34:30.670Z,30.00
2022-12-01T17:37:32.323Z,25.63
2022-12-01T17:40:35.090Z,21.00
2022-12-01T17:43:38.473Z,19.45
2022-12-01T17:46:41.851Z,18.48
2022-12-01T17:49:43.629Z,15.57
2022-12-01T17:52:45.329Z,15.77
2022-12-01T17:55:47.055Z,15.98
2022-12-01T17:58:50.461Z,15.15
2022-12-01T18:01:52.356Z,16.30
2022-12-01T18:04:54.507Z,16.00
2022-12-01T18:07:56.381Z,18.80
2022-12-01T18:11:02.886Z,18.88
2022-12-01T18:14:04.480Z,18.60
2022-12-01T18:17:06.532Z,17.05
2022-12-01T18:20:08.906Z,19.13
2022-12-01T18:23:12.694Z,17.70
2022-12-01T18:26:16.188Z,15.35
2022-12-01T18:29:25.922Z,14.63
2022-12-01T18:32:27.888Z,17.00
2022-12-01T18:35:31.890Z,18.30
2022-12-01T18:38:33.820Z,17.05
2022-12-01T18:41:36.249Z,24.13
2022-12-01T18:44:40.272Z,19.38
2022-12-01T18:47:42.003Z,18.35
2022-12-01T18:50:43.589Z,18.17
2022-12-01T18:53:45.521Z,16.42
2022-12-01T18:56:51.446Z,22.77
2022-12-01T18:59:53.169Z,16.57
2022-12-01T19:02:54.865Z,15.90
2022-12-01T19:05:56.706Z,17.35
2022-12-01T19:09:00.172Z,17.33
2022-12-01T19:12:02.316Z,15.48
2022-12-01T19:15:04.492Z,13.98
2022-12-01T19:18:06.284Z,17.20
2022-12-01T19:21:09.598Z,15.07
2022-12-01T19:24:11.673Z,16.38
2022-12-01T19:27:13.290Z,15.05
2022-12-01T19:30:15.134Z,17.65
2022-12-01T19:33:17.342Z,16.00
2022-12-01T19:36:25.449Z,21.27
2022-12-01T19:39:27.104Z,28.67
2022-12-01T19:42:30.220Z,21.98
2022-12-01T19:45:33.400Z,18.80
2022-12-01T19:48:35.459Z,20.65
2022-12-01T19:51:38.740Z,16.17
2022-12-01T19:54:40.402Z,17.80
2022-12-01T19:57:42.084Z,16.25
2022-12-01T20:00:43.895Z,16.48
2022-12-01T20:03:50.502Z,16.63
2022-12-01T20:06:52.173Z,16.42
2022-12-01T20:09:53.816Z,16.27
2022-12-01T20:12:55.520Z,15.90
2022-12-01T20:16:15.394Z,15.93
2022-12-01T20:19:17.258Z,15.10
2022-12-01T20:22:19.078Z,16.67
2022-12-01T20:25:20.714Z,16.05
2022-12-01T20:28:22.436Z,17.33
2022-12-01T20:31:26.565Z,15.85
2022-12-01T20:34:34.498Z,17.25
2022-12-01T20:37:36.211Z,16.20
2022-12-01T20:40:38.065Z,15.40
2022-12-01T20:43:40.981Z,16.33
2022-12-01T20:46:46.123Z,16.33
2022-12-01T20:49:47.839Z,15.02
2022-12-01T20:52:49.489Z,16.25
2022-12-01T20:55:51.207Z,15.38
2022-12-01T20:58:52.946Z,14.55
2022-12-01T21:01:54.887Z,17.63
2022-12-01T21:04:59.194Z,15.18
2022-12-01T21:08:01.906Z,15.82
2022-12-01T21:11:06.856Z,14.60
2022-12-01T21:14:35.344Z,19.10
2022-12-01T21:17:43.904Z,19.70
2022-12-01T21:20:47.657Z,18.58
2022-12-01T21:24:01.149Z,15.73
2022-12-01T21:27:13.876Z,16.27
2022-12-01T21:30:22.054Z,16.42
2022-12-01T21:33:42.578Z,15.40
2022-12-01T21:36:45.317Z,14.68
2022-12-01T21:39:50.884Z,18.02
2022-12-01T21:42:52.999Z,16.10
2022-12-01T21:46:13.636Z,16.00
2022-12-01T21:49:21.077Z,16.70
2022-12-01T21:52:27.354Z,16.65
2022-12-01T21:55:34.936Z,16.27
2022-12-01T21:58:37.413Z,15.38
2022-12-01T22:01:40.325Z,17.42
2022-12-01T22:04:43.339Z,15.73
2022-12-01T22:07:44.981Z,17.35
2022-12-01T22:11:03.805Z,18.70
2022-12-01T22:14:08.396Z,15.32
2022-12-01T22:17:10.007Z,16.77
2022-12-01T22:20:21.575Z,19.33
2022-12-01T22:23:32.802Z,16.45
2022-12-01T22:26:37.516Z,15.80
2022-12-01T22:29:45.532Z,14.63
2022-12-01T22:32:57.086Z,18.63
2022-12-01T22:35:58.719Z,17.52
2022-12-01T22:39:01.300Z,16.70
2022-12-01T22:42:09.526Z,16.15
2022-12-01T22:45:22.861Z,15.05
2022-12-01T22:48:39.057Z,16.20
2022-12-01T22:51:49.359Z,15.63
2022-12-01T22:54:51.344Z,15.85
2022-12-01T22:57:53.944Z,16.00
2022-12-01T23:00:58.104Z,16.63
2022-12-01T23:04:15.074Z,17.08
2022-12-01T23:07:29.355Z,16.20
2022-12-01T23:10:34.701Z,19.02
2022-12-01T23:13:36.384Z,17.30
2022-12-01T23:16:39.396Z,15.80
2022-12-01T23:19:41.098Z,16.05
2022-12-01T23:22:42.929Z,15.38
2022-12-01T23:25:46.036Z,18.00
2022-12-01T23:28:47.806Z,16.48
2022-12-01T23:31:50.573Z,18.92
2022-12-01T23:34:55.732Z,18.13
2022-12-01T23:38:01.433Z,17.83
2022-12-01T23:41:07.128Z,16.50
2022-12-01T23:44:24.021Z,21.05
2022-12-01T23:47:29.085Z,18.23
2022-12-01T23:50:31.315Z,16.60
2022-12-01T23:53:33.163Z,19.17
2022-12-01T23:56:37.897Z,17.67
2022-12-01T23:59:39.571Z,16.63
